Time;durP1;ratioP1;P1;durP2;ratioP2;P2;SDS_P1;SDS_P2;PMS_P1;PMS_P2;Temp;Humidity;BMP_temperature;BMP_pressure;BME280_temperature;BME280_humidity;BME280_pressure;Samples;Min_cycle;Max_cycle;Signal;HPM_P1;HPM_P2
2022/07/13 00:02:00;;;;;;;1.93;1.70;;;23.70;57.80;;;;;;4984041;28;20413;-65
2022/07/13 00:04:26;;;;;;;2.00;1.80;;;23.70;57.70;;;;;;4986738;28;20406;-65
2022/07/13 00:06:52;;;;;;;2.67;1.77;;;23.70;57.70;;;;;;4982068;28;20428;-66
2022/07/13 00:09:17;;;;;;;1.75;1.50;;;23.70;57.60;;;;;;4982905;28;20390;-66
2022/07/13 00:11:43;;;;;;;1.90;1.50;;;23.70;57.60;;;;;;4982756;28;20457;-65
2022/07/13 00:14:08;;;;;;;1.83;1.67;;;23.70;57.70;;;;;;4983107;28;20390;-66
2022/07/13 00:16:34;;;;;;;2.03;1.70;;;23.70;57.60;;;;;;4997709;28;20872;-65
2022/07/13 00:19:00;;;;;;;2.10;1.60;;;23.70;57.70;;;;;;4983830;28;20761;-65
2022/07/13 00:21:25;;;;;;;1.80;1.70;;;23.70;57.60;;;;;;5002410;28;20394;-66
2022/07/13 00:23:51;;;;;;;1.73;1.58;;;23.70;57.60;;;;;;4986875;28;20489;-67
2022/07/13 00:26:17;;;;;;;1.70;1.60;;;23.70;57.60;;;;;;4986575;28;20422;-65
2022/07/13 00:28:42;;;;;;;1.92;1.70;;;23.70;57.60;;;;;;4986205;28;21193;-66
2022/07/13 00:31:08;;;;;;;1.80;1.60;;;23.70;57.50;;;;;;4987025;28;20394;-67
2022/07/13 00:33:33;;;;;;;2.03;1.47;;;23.70;57.50;;;;;;4986763;28;20406;-65
2022/07/13 00:35:59;;;;;;;1.73;1.63;;;23.60;57.50;;;;;;4986834;28;20401;-65
2022/07/13 00:38:25;;;;;;;2.43;1.70;;;23.60;57.50;;;;;;4984855;28;20480;-65
2022/07/13 00:40:50;;;;;;;1.70;1.60;;;23.60;58.10;;;;;;4986374;28;20389;-65
2022/07/13 00:43:17;;;;;;;2.05;1.60;;;23.60;57.50;;;;;;5001309;28;20912;-65
2022/07/13 00:45:43;;;;;;;2.08;1.80;;;23.60;57.40;;;;;;4986437;28;20522;-65
2022/07/13 00:48:10;;;;;;;1.73;1.60;;;23.60;57.50;;;;;;4985887;28;20453;-65
2022/07/13 00:50:37;;;;;;;2.17;1.80;;;23.60;57.40;;;;;;4986888;28;20824;-65
2022/07/13 00:53:04;;;;;;;2.17;1.70;;;23.60;57.40;;;;;;4986103;28;20378;-66
2022/07/13 00:55:32;;;;;;;2.05;1.85;;;23.60;57.30;;;;;;4986437;28;20402;-67
2022/07/13 00:57:58;;;;;;;2.13;1.80;;;23.60;57.40;;;;;;4968612;28;20394;-65
2022/07/13 01:00:24;;;;;;;1.90;1.63;;;23.60;57.50;;;;;;4986378;28;20779;-65
2022/07/13 01:02:50;;;;;;;2.00;1.90;;;23.60;57.40;;;;;;5000840;28;20397;-65
2022/07/13 01:05:16;;;;;;;2.25;1.70;;;23.60;57.40;;;;;;4985832;28;20820;-66
2022/07/13 01:07:42;;;;;;;1.70;1.60;;;23.60;57.40;;;;;;4986099;28;20395;-65
2022/07/13 01:10:10;;;;;;;1.70;1.60;;;23.60;57.40;;;;;;4986280;28;20433;-66
2022/07/13 01:12:37;;;;;;;1.87;1.50;;;23.60;57.30;;;;;;4985777;28;20382;-69
2022/07/13 01:15:07;;;;;;;2.15;1.95;;;23.60;57.40;;;;;;4985797;28;20761;-65
2022/07/13 01:17:35;;;;;;;1.88;1.77;;;23.60;57.30;;;;;;4986356;28;20401;-66
2022/07/13 01:20:02;;;;;;;1.75;1.65;;;23.50;57.20;;;;;;4985636;28;20758;-65
2022/07/13 01:22:35;;;;;;;1.65;1.55;;;23.50;57.20;;;;;;4985542;28;20398;-65
2022/07/13 01:25:03;;;;;;;1.85;1.63;;;23.60;57.30;;;;;;4985212;28;20410;-66
2022/07/13 01:27:30;;;;;;;1.83;1.73;;;23.60;57.30;;;;;;4985791;28;20406;-65
2022/07/13 01:29:56;;;;;;;2.28;1.60;;;23.60;57.20;;;;;;4985220;28;20452;-67
2022/07/13 01:32:22;;;;;;;1.52;1.42;;;23.50;57.20;;;;;;4985609;28;20410;-65
2022/07/13 01:34:47;;;;;;;1.70;1.60;;;23.50;57.20;;;;;;4985042;28;20828;-66
2022/07/13 01:37:13;;;;;;;2.33;1.57;;;23.50;57.20;;;;;;4986090;28;20403;-66
2022/07/13 01:39:39;;;;;;;2.60;1.70;;;23.50;57.20;;;;;;4985370;28;20955;-67
2022/07/13 01:42:05;;;;;;;1.60;1.50;;;23.50;57.20;;;;;;4985725;28;20401;-65
2022/07/13 01:44:30;;;;;;;1.83;1.73;;;23.50;57.10;;;;;;4985268;28;20461;-66
2022/07/13 01:46:56;;;;;;;2.37;1.53;;;23.50;57.20;;;;;;4984939;28;20433;-65
2022/07/13 01:49:21;;;;;;;1.58;1.48;;;23.50;57.10;;;;;;5000333;28;20407;-65
2022/07/13 01:51:47;;;;;;;2.00;1.50;;;23.50;57.10;;;;;;5000173;28;20769;-65
2022/07/13 01:54:13;;;;;;;1.63;1.50;;;23.50;57.20;;;;;;4985083;28;20864;-65
2022/07/13 01:56:39;;;;;;;1.75;1.65;;;23.50;57.10;;;;;;4985121;28;20936;-65
2022/07/13 01:59:04;;;;;;;1.77;1.60;;;23.50;57.10;;;;;;4984797;28;20387;-67
2022/07/13 02:01:30;;;;;;;1.55;1.45;;;23.50;57.10;;;;;;4985100;28;20442;-66
2022/07/13 02:03:56;;;;;;;2.05;1.52;;;23.50;57.10;;;;;;4985096;28;20395;-66
2022/07/13 02:06:21;;;;;;;2.03;1.45;;;23.50;57.10;;;;;;4984460;28;20422;-65
2022/07/13 02:08:47;;;;;;;1.70;1.40;;;23.50;57.20;;;;;;4984344;28;20840;-66
2022/07/13 02:11:17;;;;;;;2.40;1.60;;;23.40;57.10;;;;;;4984661;28;20402;-66
2022/07/13 02:13:44;;;;;;;2.22;1.50;;;23.50;57.30;;;;;;4984732;28;20394;-66
2022/07/13 02:16:11;;;;;;;1.90;1.70;;;23.50;57.30;;;;;;4984926;28;20469;-66
2022/07/13 02:18:36;;;;;;;1.85;1.42;;;23.50;57.20;;;;;;4984631;28;20394;-65
2022/07/13 02:21:02;;;;;;;1.87;1.50;;;23.50;57.20;;;;;;4984154;28;20453;-66
2022/07/13 02:23:28;;;;;;;2.38;1.83;;;23.40;57.20;;;;;;4984757;28;20448;-65
2022/07/13 02:25:53;;;;;;;1.87;1.63;;;23.40;57.10;;;;;;4984252;28;20422;-65
2022/07/13 02:28:19;;;;;;;1.77;1.50;;;23.60;57.20;;;;;;4984655;28;20398;-66
2022/07/13 02:30:45;;;;;;;2.70;1.40;;;23.40;57.20;;;;;;4984036;28;20430;-68
2022/07/13 02:33:11;;;;;;;1.63;1.53;;;23.40;57.10;;;;;;4984363;28;20572;-66
2022/07/13 02:35:37;;;;;;;1.80;1.60;;;23.40;57.20;;;;;;4984232;28;20453;-66
2022/07/13 02:38:03;;;;;;;1.70;1.50;;;23.40;57.20;;;;;;4984417;28;20509;-66
2022/07/13 02:40:29;;;;;;;1.70;1.60;;;23.40;57.20;;;;;;4984390;28;20769;-66
2022/07/13 02:42:55;;;;;;;2.13;1.70;;;23.40;57.10;;;;;;4982981;28;20430;-66
2022/07/13 02:45:20;;;;;;;1.80;1.50;;;23.40;57.20;;;;;;4984042;28;20784;-65
2022/07/13 02:47:46;;;;;;;1.63;1.53;;;23.40;57.10;;;;;;4984297;28;20401;-65
2022/07/13 02:50:12;;;;;;;1.65;1.50;;;23.40;57.10;;;;;;4984315;28;21236;-65
2022/07/13 02:52:38;;;;;;;1.83;1.48;;;23.40;57.20;;;;;;4984167;28;20386;-66
2022/07/13 02:55:05;;;;;;;1.80;1.60;;;23.40;57.10;;;;;;4983696;28;20931;-66
2022/07/13 02:57:30;;;;;;;1.60;1.30;;;23.40;57.20;;;;;;4983972;28;20421;-66
2022/07/13 02:59:56;;;;;;;2.90;1.65;;;23.40;57.10;;;;;;4983883;28;20394;-66
2022/07/13 03:02:22;;;;;;;1.53;1.33;;;23.40;57.10;;;;;;4983882;28;20394;-65
2022/07/13 03:04:47;;;;;;;2.25;1.75;;;23.40;57.10;;;;;;4983476;28;20982;-65
2022/07/13 03:07:13;;;;;;;1.60;1.50;;;23.40;57.20;;;;;;4983587;28;20409;-66
2022/07/13 03:09:39;;;;;;;2.42;1.60;;;23.40;58.10;;;;;;4983612;28;20394;-66
2022/07/13 03:12:05;;;;;;;2.40;1.73;;;23.40;58.90;;;;;;4983740;28;20394;-66
2022/07/13 03:14:30;;;;;;;4.80;1.85;;;23.40;59.40;;;;;;4982396;28;20483;-65
2022/07/13 03:16:56;;;;;;;1.80;1.65;;;23.40;60.70;;;;;;4998204;28;20407;-69
2022/07/13 03:19:22;;;;;;;1.70;1.40;;;23.50;59.40;;;;;;4983507;28;20386;-67
2022/07/13 03:21:47;;;;;;;3.17;1.70;;;23.50;59.70;;;;;;4998577;28;20880;-66
2022/07/13 03:24:13;;;;;;;3.70;1.85;;;23.50;61.10;;;;;;4982646;28;21416;-66
2022/07/13 03:26:39;;;;;;;2.60;1.70;;;23.50;60.90;;;;;;4983465;28;20435;-65
2022/07/13 03:29:04;;;;;;;2.63;1.75;;;23.60;60.80;;;;;;4983210;28;20430;-65
2022/07/13 03:31:30;;;;;;;3.70;1.90;;;23.60;61.20;;;;;;4998101;28;20418;-65
2022/07/13 03:33:56;;;;;;;2.00;1.60;;;23.60;60.90;;;;;;4986992;28;20469;-66
2022/07/13 03:36:21;;;;;;;2.63;1.73;;;23.60;61.00;;;;;;4992300;28;20410;-66
2022/07/13 03:38:47;;;;;;;3.23;1.77;;;23.70;61.20;;;;;;4990953;28;20477;-65
2022/07/13 03:41:13;;;;;;;3.40;1.88;;;23.70;61.00;;;;;;4983112;28;20402;-66
2022/07/13 03:43:38;;;;;;;5.00;1.80;;;23.70;61.20;;;;;;4982803;28;20935;-67
2022/07/13 03:46:04;;;;;;;4.80;1.80;;;23.70;60.60;;;;;;4982608;28;21105;-67
2022/07/13 03:48:30;;;;;;;6.25;1.77;;;23.70;60.10;;;;;;4983812;28;20493;-67
2022/07/13 03:50:55;;;;;;;5.40;1.87;;;23.60;60.10;;;;;;4986764;28;20405;-66
2022/07/13 03:53:21;;;;;;;15.95;2.40;;;23.60;60.40;;;;;;4991989;28;20390;-66
2022/07/13 03:55:46;;;;;;;6.27;2.00;;;23.60;60.20;;;;;;4992010;28;20490;-66
2022/07/13 03:58:12;;;;;;;4.40;1.90;;;23.60;59.90;;;;;;4989038;28;20506;-65
2022/07/13 04:00:38;;;;;;;7.38;2.10;;;23.60;60.20;;;;;;4982583;28;20399;-67
2022/07/13 04:03:04;;;;;;;6.23;1.93;;;23.60;59.50;;;;;;4982293;28;20767;-67
2022/07/13 04:05:30;;;;;;;7.03;1.92;;;23.60;59.80;;;;;;4982899;28;20462;-65
2022/07/13 04:07:56;;;;;;;6.72;1.90;;;23.60;59.70;;;;;;4982740;28;20399;-68
2022/07/13 04:10:21;;;;;;;7.57;1.67;;;23.60;59.30;;;;;;4983004;28;20494;-67
2022/07/13 04:12:48;;;;;;;5.18;1.58;;;23.60;59.30;;;;;;4982487;28;20485;-65
2022/07/13 04:15:15;;;;;;;4.60;1.90;;;23.60;58.60;;;;;;4982752;28;20394;-66
2022/07/13 04:17:42;;;;;;;5.30;1.80;;;23.50;57.60;;;;;;4982791;28;20418;-66
2022/07/13 04:20:10;;;;;;;5.47;1.63;;;23.50;57.70;;;;;;4982996;28;20493;-67
2022/07/13 04:22:36;;;;;;;4.80;1.80;;;23.50;57.40;;;;;;4982836;28;20896;-66
2022/07/13 04:25:05;;;;;;;3.43;1.50;;;23.50;57.40;;;;;;4982443;28;20504;-66
2022/07/13 04:27:31;;;;;;;2.92;1.58;;;23.50;57.40;;;;;;4997736;28;20405;-66
2022/07/13 04:29:57;;;;;;;2.72;1.60;;;23.50;57.40;;;;;;4982955;28;20414;-65
2022/07/13 04:32:22;;;;;;;4.07;1.60;;;23.40;57.40;;;;;;4982842;28;20748;-66
2022/07/13 04:34:49;;;;;;;3.83;1.70;;;23.50;57.30;;;;;;4982617;28;20545;-70
2022/07/13 04:37:14;;;;;;;5.22;1.70;;;23.50;57.80;;;;;;4982780;28;20398;-65
2022/07/13 04:39:41;;;;;;;4.83;1.80;;;23.40;58.00;;;;;;4982773;28;20811;-65
2022/07/13 04:42:06;;;;;;;4.10;1.75;;;23.50;58.30;;;;;;4983040;28;20398;-66
2022/07/13 04:44:32;;;;;;;5.38;1.90;;;23.60;59.40;;;;;;4982697;28;20406;-65
2022/07/13 04:46:58;;;;;;;5.00;2.28;;;23.60;59.40;;;;;;4996897;28;20430;-67
2022/07/13 04:49:24;;;;;;;3.70;1.73;;;23.60;59.30;;;;;;4978359;28;20402;-65
2022/07/13 04:51:50;;;;;;;7.07;1.75;;;23.60;59.00;;;;;;4981835;28;20410;-67
2022/07/13 04:54:19;;;;;;;4.50;1.90;;;23.60;58.50;;;;;;4981983;28;20386;-69
2022/07/13 04:56:45;;;;;;;4.70;1.95;;;23.60;58.10;;;;;;4980537;28;20572;-70
2022/07/13 04:59:12;;;;;;;3.43;1.50;;;23.60;59.20;;;;;;4980722;28;20824;-67
2022/07/13 05:01:38;;;;;;;3.40;1.80;;;23.60;57.80;;;;;;4982515;28;20456;-65
2022/07/13 05:04:04;;;;;;;4.27;1.70;;;23.50;57.70;;;;;;4982902;28;20759;-65
2022/07/13 05:06:30;;;;;;;3.97;1.90;;;23.50;57.30;;;;;;4985734;28;20438;-69
2022/07/13 05:08:56;;;;;;;2.70;1.70;;;23.50;57.10;;;;;;4984988;28;21004;-65
2022/07/13 05:11:22;;;;;;;2.47;1.50;;;23.50;57.30;;;;;;4991269;28;20414;-69
2022/07/13 05:13:49;;;;;;;2.65;1.80;;;23.50;57.20;;;;;;5009197;28;20493;-65
2022/07/13 05:16:15;;;;;;;3.30;1.70;;;23.50;57.20;;;;;;4994353;28;20530;-66
2022/07/13 05:18:41;;;;;;;2.70;1.60;;;23.50;56.90;;;;;;4988023;28;20489;-65
2022/07/13 05:21:08;;;;;;;2.67;1.80;;;23.50;57.20;;;;;;4985182;28;20394;-66
2022/07/13 05:23:38;;;;;;;2.90;1.70;;;23.50;57.10;;;;;;4985650;28;20505;-67
2022/07/13 05:26:05;;;;;;;2.40;1.60;;;23.40;57.00;;;;;;4985104;28;20426;-66
2022/07/13 05:28:32;;;;;;;2.20;1.80;;;23.50;57.40;;;;;;4984040;28;20978;-66
2022/07/13 05:30:59;;;;;;;2.70;1.60;;;23.50;57.50;;;;;;4984914;28;20899;-67
2022/07/13 05:33:25;;;;;;;2.63;1.70;;;23.40;57.50;;;;;;4985252;28;20869;-65
2022/07/13 05:35:51;;;;;;;2.00;1.77;;;23.50;57.60;;;;;;4985696;28;20398;-65
2022/07/13 05:38:17;;;;;;;2.00;1.80;;;23.50;57.60;;;;;;4985149;28;20421;-66
2022/07/13 05:40:45;;;;;;;2.30;1.80;;;23.40;57.50;;;;;;4985275;28;20493;-66
2022/07/13 05:43:11;;;;;;;2.20;1.70;;;23.40;57.60;;;;;;4984983;28;20394;-67
2022/07/13 05:45:36;;;;;;;2.17;1.60;;;23.40;57.60;;;;;;4984769;28;20978;-67
2022/07/13 05:48:02;;;;;;;3.30;1.60;;;23.40;57.50;;;;;;4984774;28;20544;-67
2022/07/13 05:50:28;;;;;;;2.53;1.70;;;23.40;57.50;;;;;;4984730;28;20473;-66
2022/07/13 05:52:54;;;;;;;2.72;1.60;;;23.40;57.40;;;;;;4984743;28;20460;-66
2022/07/13 05:55:19;;;;;;;1.80;1.50;;;23.40;57.40;;;;;;4984827;28;20464;-65
2022/07/13 05:57:45;;;;;;;3.40;1.70;;;23.40;57.40;;;;;;4999917;28;20411;-69
2022/07/13 06:00:13;;;;;;;2.50;1.80;;;23.40;57.40;;;;;;4985127;28;20437;-64
2022/07/13 06:02:40;;;;;;;2.00;1.80;;;23.40;57.50;;;;;;4984994;28;20386;-67
2022/07/13 06:05:06;;;;;;;2.30;1.50;;;23.40;57.40;;;;;;4984485;28;20832;-69
2022/07/13 06:07:32;;;;;;;2.30;1.70;;;23.40;57.30;;;;;;4984940;28;20391;-67
2022/07/13 06:10:01;;;;;;;2.67;1.67;;;23.40;57.20;;;;;;4999523;28;20477;-66
2022/07/13 06:12:27;;;;;;;2.78;1.67;;;23.40;57.20;;;;;;4984501;28;20394;-66
2022/07/13 06:14:53;;;;;;;1.70;1.50;;;23.40;57.20;;;;;;4999763;28;21063;-69
2022/07/13 06:17:20;;;;;;;1.77;1.50;;;23.40;57.20;;;;;;4984220;28;20997;-67
2022/07/13 06:19:46;;;;;;;2.00;1.50;;;23.40;57.20;;;;;;4984690;28;20402;-65
2022/07/13 06:22:11;;;;;;;2.90;1.50;;;23.50;57.30;;;;;;4984583;28;20412;-66
2022/07/13 06:24:37;;;;;;;2.70;1.50;;;23.50;57.30;;;;;;4999485;28;20738;-67
2022/07/13 06:27:03;;;;;;;2.08;1.60;;;23.50;57.50;;;;;;4983805;28;20830;-66
2022/07/13 06:29:28;;;;;;;1.90;1.80;;;23.50;57.30;;;;;;4984298;28;21368;-65
2022/07/13 06:31:54;;;;;;;1.98;1.80;;;23.50;57.20;;;;;;4999197;28;20410;-67
2022/07/13 06:34:20;;;;;;;2.40;1.80;;;23.50;57.10;;;;;;4984020;28;20478;-69
2022/07/13 06:36:45;;;;;;;2.20;1.80;;;23.50;57.20;;;;;;4984347;28;20891;-67
2022/07/13 06:39:11;;;;;;;1.40;1.30;;;23.50;56.80;;;;;;4983682;28;20398;-67
2022/07/13 06:41:37;;;;;;;2.17;1.50;;;23.50;56.90;;;;;;4984313;28;20405;-67
2022/07/13 06:44:03;;;;;;;1.70;1.60;;;23.50;57.40;;;;;;4984020;28;20469;-66
2022/07/13 06:46:29;;;;;;;1.77;1.50;;;23.50;56.80;;;;;;4998855;28;20433;-67
2022/07/13 06:48:54;;;;;;;2.80;1.70;;;23.50;56.80;;;;;;4983881;28;20444;-66
2022/07/13 06:51:20;;;;;;;1.77;1.50;;;23.50;56.90;;;;;;4983792;28;20403;-65
2022/07/13 06:53:46;;;;;;;3.50;1.63;;;23.50;57.20;;;;;;4983887;28;21666;-66
2022/07/13 06:56:11;;;;;;;2.30;1.90;;;23.50;57.00;;;;;;4983791;28;20753;-66
2022/07/13 06:58:37;;;;;;;2.92;1.70;;;23.50;57.10;;;;;;4983969;28;20446;-68
2022/07/13 07:01:03;;;;;;;2.70;1.60;;;23.50;57.30;;;;;;4983022;28;20409;-66
2022/07/13 07:03:29;;;;;;;1.98;1.70;;;23.50;57.40;;;;;;4998627;28;20396;-69
2022/07/13 07:05:55;;;;;;;2.05;1.52;;;23.50;57.40;;;;;;4983433;28;20422;-67
2022/07/13 07:08:21;;;;;;;1.80;1.63;;;23.50;57.50;;;;;;4983815;28;20413;-66
2022/07/13 07:10:47;;;;;;;2.25;2.05;;;23.50;57.50;;;;;;4984416;28;20401;-67
2022/07/13 07:13:13;;;;;;;2.70;1.50;;;23.50;57.50;;;;;;4983317;28;20410;-66
2022/07/13 07:15:39;;;;;;;1.60;1.40;;;23.50;57.60;;;;;;4983467;28;20708;-69
2022/07/13 07:18:05;;;;;;;2.35;1.67;;;23.50;57.50;;;;;;4998259;28;20482;-67
2022/07/13 07:20:31;;;;;;;1.60;1.50;;;23.50;57.10;;;;;;4983384;28;20761;-67
2022/07/13 07:22:57;;;;;;;1.80;1.40;;;23.50;57.50;;;;;;4983354;28;20420;-67
2022/07/13 07:25:23;;;;;;;2.20;1.63;;;23.50;57.50;;;;;;4983203;28;20780;-66
2022/07/13 07:27:48;;;;;;;1.50;1.40;;;23.50;57.60;;;;;;4982814;28;20386;-66
2022/07/13 07:30:14;;;;;;;1.88;1.70;;;23.50;57.60;;;;;;4997954;28;20402;-70
2022/07/13 07:32:40;;;;;;;2.33;1.60;;;23.50;57.60;;;;;;4997962;28;20403;-66
2022/07/13 07:35:07;;;;;;;1.92;1.70;;;23.50;57.60;;;;;;4997617;28;20402;-68
2022/07/13 07:37:33;;;;;;;1.98;1.77;;;23.50;57.60;;;;;;4983318;28;20393;-68
2022/07/13 07:39:59;;;;;;;2.10;1.65;;;23.50;57.60;;;;;;4983055;28;20386;-66
2022/07/13 07:42:25;;;;;;;3.13;1.80;;;23.50;57.60;;;;;;4983198;28;20409;-67
2022/07/13 07:44:51;;;;;;;2.60;1.65;;;23.60;57.70;;;;;;4981728;28;20403;-66
2022/07/13 07:47:17;;;;;;;3.00;1.63;;;23.60;57.70;;;;;;4983306;28;20398;-67
2022/07/13 07:49:43;;;;;;;3.85;1.75;;;23.60;57.70;;;;;;4983184;28;20398;-65
2022/07/13 07:52:09;;;;;;;3.15;1.80;;;23.60;57.60;;;;;;4983077;28;20449;-69
2022/07/13 07:54:35;;;;;;;2.80;1.80;;;23.50;57.50;;;;;;4982995;28;20402;-67
2022/07/13 07:57:01;;;;;;;3.27;1.83;;;23.60;57.50;;;;;;4982204;28;20397;-69
2022/07/13 07:59:27;;;;;;;2.90;1.70;;;23.50;57.40;;;;;;4998248;28;20402;-67
2022/07/13 08:01:53;;;;;;;2.83;1.80;;;23.50;57.50;;;;;;4978982;28;20481;-70
2022/07/13 08:04:19;;;;;;;2.58;1.80;;;23.60;57.50;;;;;;4982801;28;20402;-68
2022/07/13 08:06:45;;;;;;;2.13;1.85;;;23.50;57.40;;;;;;4983821;28;20573;-67
2022/07/13 08:09:11;;;;;;;2.40;1.80;;;23.60;57.50;;;;;;4997135;28;20406;-67
2022/07/13 08:11:36;;;;;;;2.45;1.80;;;23.50;57.40;;;;;;4982791;28;20405;-69
2022/07/13 08:14:02;;;;;;;1.85;1.63;;;23.60;58.00;;;;;;4982696;28;20398;-69
2022/07/13 08:16:27;;;;;;;2.10;1.70;;;23.60;57.50;;;;;;4997677;28;20908;-67
2022/07/13 08:18:53;;;;;;;2.38;1.90;;;23.60;57.50;;;;;;4982832;28;20460;-67
2022/07/13 08:21:19;;;;;;;2.80;1.80;;;23.60;57.50;;;;;;4982447;28;20456;-67
2022/07/13 08:23:56;;;;;;;2.63;1.70;;;23.60;57.50;;;;;;4997671;28;20420;-67
2022/07/13 08:26:24;;;;;;;3.10;1.80;;;23.60;57.40;;;;;;4982504;28;20426;-68
2022/07/13 08:28:51;;;;;;;2.20;1.73;;;23.60;57.40;;;;;;4982735;28;20391;-67
2022/07/13 08:31:17;;;;;;;2.88;1.83;;;23.60;57.40;;;;;;4997126;28;20964;-66
2022/07/13 08:39:12;;;;;;;3.70;2.30;;;23.60;57.60;;;;;;4982353;28;20393;-67
2022/07/13 08:41:39;;;;;;;5.10;2.63;;;23.60;57.70;;;;;;4986080;28;20887;-67
2022/07/13 08:44:05;;;;;;;3.65;2.40;;;23.60;57.80;;;;;;4986416;28;20401;-67
2022/07/13 08:46:31;;;;;;;3.65;2.42;;;23.60;57.70;;;;;;4985348;28;20468;-67
2022/07/13 08:48:57;;;;;;;2.90;2.00;;;23.60;58.00;;;;;;4985739;28;20485;-65
2022/07/13 08:51:24;;;;;;;3.45;2.30;;;23.60;57.80;;;;;;4985678;28;20402;-67
2022/07/13 08:53:51;;;;;;;4.70;2.53;;;23.70;57.90;;;;;;4986168;28;20530;-66
2022/07/13 08:56:18;;;;;;;4.10;2.17;;;23.60;58.00;;;;;;4985884;28;20461;-70
2022/07/13 08:58:44;;;;;;;4.07;2.72;;;23.60;58.00;;;;;;5000961;28;20396;-67
2022/07/13 09:01:11;;;;;;;3.53;2.60;;;23.70;58.20;;;;;;5000426;28;20820;-66
2022/07/13 09:03:37;;;;;;;4.13;2.47;;;23.70;58.10;;;;;;4988890;28;20469;-69
2022/07/13 09:06:03;;;;;;;3.63;2.67;;;23.70;58.00;;;;;;4986180;28;20557;-66
2022/07/13 09:08:29;;;;;;;4.40;2.90;;;23.70;58.20;;;;;;5000757;28;20395;-66
2022/07/13 09:11:00;;;;;;;4.23;2.90;;;23.70;58.20;;;;;;4985683;28;20402;-68
2022/07/13 09:13:42;;;;;;;7.07;3.80;;;23.70;58.50;;;;;;4985525;28;20863;-67
2022/07/13 09:16:21;;;;;;;5.80;3.70;;;23.70;58.40;;;;;;4985893;28;20402;-68
2022/07/13 09:18:49;;;;;;;11.35;6.70;;;23.70;58.60;;;;;;4985573;28;20927;-65
2022/07/13 09:21:15;;;;;;;8.60;4.75;;;23.80;58.70;;;;;;5000710;28;20394;-66
2022/07/13 09:23:42;;;;;;;22.50;11.80;;;23.80;58.50;;;;;;4985784;28;20387;-66
2022/07/13 09:26:08;;;;;;;25.25;13.45;;;23.90;59.40;;;;;;4985876;28;20458;-68
2022/07/13 09:28:47;;;;;;;24.70;12.60;;;23.90;59.40;;;;;;4983789;28;20425;-66
2022/07/13 09:31:14;;;;;;;18.50;10.38;;;23.90;59.30;;;;;;4984779;28;20763;-66
2022/07/13 09:33:43;;;;;;;15.77;8.18;;;23.80;59.30;;;;;;4985422;28;20812;-66
2022/07/13 09:36:12;;;;;;;13.65;6.45;;;23.80;59.10;;;;;;4985621;28;20418;-66
2022/07/13 09:38:41;;;;;;;14.50;6.32;;;23.90;59.30;;;;;;4985415;28;20433;-64
2022/07/13 09:41:20;;;;;;;10.20;5.30;;;23.80;59.00;;;;;;4983992;28;20453;-69
2022/07/13 09:46:56;;;;;;;7.80;4.35;;;23.90;58.60;;;;;;4984760;28;20457;-68
2022/07/13 09:49:44;;;;;;;8.00;4.75;;;23.80;58.00;;;;;;4984703;28;20391;-66
2022/07/13 09:52:16;;;;;;;8.48;4.40;;;23.80;58.00;;;;;;4984797;28;20402;-67
2022/07/13 09:54:44;;;;;;;7.22;4.18;;;23.80;58.50;;;;;;4985087;28;20390;-67
2022/07/13 09:57:12;;;;;;;7.45;4.45;;;23.80;57.90;;;;;;4984977;28;20452;-67
2022/07/13 09:59:41;;;;;;;6.55;3.90;;;23.80;57.80;;;;;;5000641;28;20456;-67
2022/07/13 10:02:07;;;;;;;6.18;3.45;;;23.80;57.70;;;;;;5000841;28;20390;-69
2022/07/13 10:04:35;;;;;;;5.63;3.30;;;23.80;57.50;;;;;;4984822;28;20394;-66
2022/07/13 10:07:01;;;;;;;6.78;3.50;;;23.80;57.30;;;;;;4983338;28;20468;-67
2022/07/13 10:09:31;;;;;;;7.72;3.78;;;23.80;57.70;;;;;;4999397;28;20391;-67
2022/07/13 10:11:58;;;;;;;8.43;3.90;;;23.80;58.30;;;;;;4984311;28;20908;-65
2022/07/13 10:14:27;;;;;;;5.63;3.35;;;23.80;59.60;;;;;;4984631;28;21238;-69
2022/07/13 10:17:00;;;;;;;5.15;3.20;;;23.90;59.60;;;;;;4984664;28;20402;-67
2022/07/13 10:19:26;;;;;;;4.60;3.03;;;23.90;59.00;;;;;;4998796;28;20410;-66
2022/07/13 10:22:11;;;;;;;3.95;3.20;;;23.90;58.70;;;;;;4999423;28;20401;-66
2022/07/13 10:24:49;;;;;;;5.80;3.10;;;23.90;58.40;;;;;;4983712;28;20390;-66
2022/07/13 10:27:25;;;;;;;5.43;3.00;;;23.90;58.30;;;;;;4983428;28;20780;-66
2022/07/13 10:30:03;;;;;;;5.10;3.20;;;23.90;58.40;;;;;;4982953;28;20441;-66
2022/07/13 10:32:31;;;;;;;4.93;2.90;;;24.00;58.60;;;;;;4982033;28;20434;-66
2022/07/13 10:35:01;;;;;;;4.72;2.60;;;23.90;58.70;;;;;;4990277;28;20403;-66
2022/07/13 10:37:27;;;;;;;6.25;2.83;;;24.00;58.90;;;;;;4982252;28;20406;-67
2022/07/13 10:40:13;;;;;;;3.15;2.47;;;24.00;58.40;;;;;;4984461;28;20529;-67
2022/07/13 10:42:55;;;;;;;3.78;2.60;;;23.90;58.70;;;;;;4998738;28;20433;-66
2022/07/13 10:45:38;;;;;;;5.05;2.50;;;23.90;58.50;;;;;;4983492;28;20422;-66
2022/07/13 10:48:30;;;;;;;3.58;2.58;;;24.00;58.30;;;;;;4998885;28;20438;-66
2022/07/13 10:50:58;;;;;;;3.30;2.40;;;23.90;58.00;;;;;;4983325;28;20813;-67
2022/07/13 10:53:39;;;;;;;6.03;2.28;;;23.90;58.00;;;;;;4983379;28;21007;-65
2022/07/13 10:56:15;;;;;;;4.07;2.40;;;24.00;58.00;;;;;;4974038;28;20445;-69
2022/07/13 10:58:43;;;;;;;3.60;2.05;;;23.90;57.80;;;;;;4992594;28;20880;-69
2022/07/13 11:01:30;;;;;;;3.40;2.10;;;23.90;57.70;;;;;;4992545;28;20449;-70
2022/07/13 11:03:56;;;;;;;4.45;2.00;;;23.90;57.60;;;;;;4991889;28;20900;-66
2022/07/13 11:06:24;;;;;;;3.53;2.10;;;23.90;57.40;;;;;;5007315;28;20502;-70
2022/07/13 11:09:13;;;;;;;2.90;1.90;;;23.90;57.50;;;;;;5007503;28;20916;-69
2022/07/13 11:11:50;;;;;;;4.22;1.98;;;23.90;57.40;;;;;;4992031;28;20398;-66
2022/07/13 11:14:41;;;;;;;2.50;1.70;;;23.90;57.40;;;;;;4992290;28;20422;-69
2022/07/13 11:17:15;;;;;;;2.47;1.90;;;23.90;57.30;;;;;;4992229;28;20387;-65
2022/07/13 11:19:54;;;;;;;3.83;2.20;;;23.90;57.40;;;;;;5007493;28;20406;-65
2022/07/13 11:22:21;;;;;;;3.67;1.90;;;23.90;57.20;;;;;;4983834;28;20406;-65
2022/07/13 11:25:26;;;;;;;3.55;1.90;;;23.90;57.30;;;;;;4980085;28;20391;-66
2022/07/13 11:28:20;;;;;;;4.50;1.83;;;23.90;57.30;;;;;;4974482;28;20405;-70
2022/07/13 11:30:57;;;;;;;2.67;1.80;;;24.00;57.20;;;;;;4973797;28;20404;-65
2022/07/13 11:33:23;;;;;;;3.55;1.80;;;24.00;57.10;;;;;;4972368;28;20862;-66
2022/07/13 11:35:49;;;;;;;3.53;1.70;;;24.00;57.20;;;;;;4972263;28;20766;-65
2022/07/13 11:38:16;;;;;;;2.50;1.70;;;24.00;57.10;;;;;;4972279;28;20392;-65
2022/07/13 11:40:43;;;;;;;2.33;1.80;;;24.00;57.10;;;;;;4972653;28;20491;-66
2022/07/13 11:43:46;;;;;;;2.38;1.75;;;24.00;57.10;;;;;;4972355;28;20552;-64
2022/07/13 11:46:12;;;;;;;2.40;1.70;;;24.00;57.00;;;;;;4972280;28;20930;-65
2022/07/13 11:48:38;;;;;;;2.00;1.60;;;24.00;57.00;;;;;;4972039;28;20428;-65
2022/07/13 11:51:08;;;;;;;1.70;1.55;;;24.00;57.00;;;;;;4973573;28;20770;-64
2022/07/13 11:53:34;;;;;;;2.35;1.60;;;24.00;57.00;;;;;;4973422;28;20468;-65
2022/07/13 11:56:08;;;;;;;2.30;1.60;;;24.00;57.00;;;;;;4973530;28;20427;-65
2022/07/13 11:58:39;;;;;;;1.70;1.30;;;24.00;56.90;;;;;;4974164;28;20399;-66
2022/07/13 12:01:13;;;;;;;1.77;1.50;;;24.00;56.80;;;;;;4972387;28;20404;-65
2022/07/13 12:03:39;;;;;;;2.08;1.70;;;24.00;56.80;;;;;;4971904;28;20485;-65
2022/07/13 12:06:07;;;;;;;2.53;1.70;;;24.00;56.80;;;;;;4972462;28;20428;-65
2022/07/13 12:08:36;;;;;;;1.90;1.50;;;24.00;56.80;;;;;;4970844;28;21059;-65
2022/07/13 12:11:03;;;;;;;2.35;1.80;;;24.00;56.80;;;;;;4971038;28;20403;-65
2022/07/13 12:13:34;;;;;;;1.70;1.40;;;24.00;56.70;;;;;;4972342;28;20396;-65
2022/07/13 12:16:01;;;;;;;2.10;1.60;;;24.00;56.70;;;;;;4975072;28;20869;-65
2022/07/13 12:18:27;;;;;;;2.00;1.60;;;24.00;56.60;;;;;;4974818;28;20388;-65
2022/07/13 12:20:53;;;;;;;1.87;1.50;;;24.00;56.70;;;;;;4974976;28;20499;-66
2022/07/13 12:23:19;;;;;;;3.00;1.60;;;24.00;56.70;;;;;;4975812;28;20396;-65
2022/07/13 12:25:47;;;;;;;1.80;1.50;;;24.00;56.70;;;;;;4974741;28;20463;-65
2022/07/13 12:28:12;;;;;;;1.67;1.40;;;24.00;56.70;;;;;;4974918;28;20416;-66
2022/07/13 12:30:57;;;;;;;2.10;1.40;;;24.00;56.70;;;;;;4975798;28;20754;-65
2022/07/13 12:33:23;;;;;;;1.70;1.40;;;24.00;56.70;;;;;;4974365;28;20396;-65
2022/07/13 12:36:02;;;;;;;1.80;1.50;;;24.00;56.70;;;;;;4975848;28;20398;-65
2022/07/13 12:38:27;;;;;;;1.73;1.50;;;24.00;56.80;;;;;;4974492;28;20400;-66
2022/07/13 12:40:55;;;;;;;1.80;1.60;;;24.00;56.70;;;;;;4975512;28;20896;-65
2022/07/13 12:43:25;;;;;;;1.98;1.45;;;24.00;56.70;;;;;;4975403;28;20498;-66
2022/07/13 12:45:53;;;;;;;1.50;1.30;;;24.00;56.70;;;;;;4975416;28;20782;-66
2022/07/13 12:48:24;;;;;;;2.03;1.50;;;24.00;56.60;;;;;;4974305;28;20461;-66
2022/07/13 12:50:58;;;;;;;1.60;1.40;;;24.00;56.60;;;;;;4975626;28;20499;-66
2022/07/13 12:53:24;;;;;;;1.50;1.40;;;24.00;56.70;;;;;;4974001;28;20392;-66
2022/07/13 12:55:54;;;;;;;1.60;1.40;;;24.00;56.70;;;;;;4975648;28;20404;-66
2022/07/13 12:58:39;;;;;;;1.60;1.30;;;24.00;56.70;;;;;;4974181;28;20404;-65